Time;durP1;ratioP1;P1;durP2;ratioP2;P2;SDS_P1;SDS_P2;PMS_P1;PMS_P2;Temp;Humidity;BMP_temperature;BMP_pressure;BME280_temperature;BME280_humidity;BME280_pressure;Samples;Min_cycle;Max_cycle;Signal;HPM_P1;HPM_P2
2024/04/15 00:02:04;;;;;;;15.20;6.60;;;;;;;9.68;48.89;100283.11;111306;1252;21984;-66
2024/04/15 00:04:33;;;;;;;11.20;6.10;;;;;;;9.69;48.77;100284.05;111056;1252;21953;-65
2024/04/15 00:07:02;;;;;;;11.90;5.90;;;;;;;9.70;48.93;100279.25;111345;1252;21951;-66
2024/04/15 00:09:31;;;;;;;11.30;5.30;;;;;;;9.72;49.37;100272.08;111256;1252;22129;-65
2024/04/15 00:12:00;;;;;;;15.90;5.90;;;;;;;9.75;49.47;100272.39;111241;1252;21971;-66
2024/04/15 00:14:29;;;;;;;11.30;5.20;;;;;;;9.78;49.72;100264.66;111282;1252;21951;-65
2024/04/15 00:16:58;;;;;;;8.50;4.90;;;;;;;9.79;49.76;100255.58;111325;1252;21951;-67
2024/04/15 00:19:27;;;;;;;11.90;5.60;;;;;;;9.80;49.80;100243.39;111244;1252;21952;-66
2024/04/15 00:21:56;;;;;;;14.70;5.60;;;;;;;9.81;50.10;100238.58;111249;1252;24080;-67
2024/04/15 00:24:26;;;;;;;9.00;5.40;;;;;;;9.82;49.89;100231.98;111309;1252;21994;-66
2024/04/15 00:26:55;;;;;;;9.80;5.80;;;;;;;9.84;49.91;100233.99;111663;1252;21940;-67
2024/04/15 00:29:23;;;;;;;9.00;4.90;;;;;;;9.85;49.85;100234.10;111250;1252;21952;-66
2024/04/15 00:31:52;;;;;;;12.70;5.90;;;;;;;9.86;49.85;100234.17;111366;1252;21983;-67
2024/04/15 00:34:22;;;;;;;7.60;5.50;;;;;;;9.88;50.02;100236.15;111358;1252;21957;-66
2024/04/15 00:36:51;;;;;;;11.30;5.80;;;;;;;9.89;50.24;100241.72;111316;1252;22418;-67
2024/04/15 00:39:20;;;;;;;12.10;5.70;;;;;;;9.89;50.19;100240.29;111299;1252;21954;-66
2024/04/15 00:41:49;;;;;;;9.50;5.70;;;;;;;9.90;49.47;100233.89;111321;1252;21951;-66
2024/04/15 00:44:18;;;;;;;12.80;6.20;;;;;;;9.93;49.29;100233.00;111274;1252;22417;-65
2024/04/15 00:46:47;;;;;;;15.30;5.60;;;;;;;9.95;48.90;100227.02;111393;1252;21956;-65
2024/04/15 00:49:16;;;;;;;10.70;6.20;;;;;;;9.96;48.45;100218.67;111207;1252;23673;-66
2024/04/15 00:51:45;;;;;;;12.30;5.80;;;;;;;9.98;48.35;100210.86;111185;1252;23570;-68
2024/04/15 00:54:14;;;;;;;12.10;5.90;;;;;;;9.99;48.50;100203.92;111513;1252;175962;-67
2024/04/15 00:56:44;;;;;;;11.90;5.80;;;;;;;10.00;48.72;100195.55;111520;1252;23570;-66
2024/04/15 00:59:13;;;;;;;16.00;7.40;;;;;;;10.01;48.81;100191.13;111283;1252;23566;-67
2024/04/15 01:01:42;;;;;;;11.90;6.50;;;;;;;10.00;48.82;100187.97;111162;1247;23742;-66
2024/04/15 01:04:12;;;;;;;12.70;7.60;;;;;;;10.00;49.18;100185.71;111117;1252;21951;-67
2024/04/15 01:06:42;;;;;;;17.10;7.20;;;;;;;10.00;49.50;100181.83;111302;1252;21971;-67
2024/04/15 01:09:11;;;;;;;14.50;7.00;;;;;;;10.00;49.88;100176.77;111114;1252;23656;-68
2024/04/15 01:11:40;;;;;;;15.90;7.90;;;;;;;10.00;50.50;100170.91;111057;1252;21971;-66
2024/04/15 01:14:09;;;;;;;13.30;7.30;;;;;;;10.01;51.08;100163.67;111609;1252;22753;-67
2024/04/15 01:16:39;;;;;;;12.50;6.90;;;;;;;10.01;51.49;100165.22;111193;1252;23032;-67
2024/04/15 01:19:08;;;;;;;12.40;7.70;;;;;;;10.03;51.72;100161.99;111290;1252;23689;-70
2024/04/15 01:21:37;;;;;;;12.00;7.90;;;;;;;10.04;51.51;100164.69;111300;1252;21995;-67
2024/04/15 01:24:06;;;;;;;12.50;8.70;;;;;;;10.02;51.36;100166.45;111258;1252;21955;-67
2024/04/15 01:26:35;;;;;;;16.30;9.20;;;;;;;9.91;51.85;100172.29;111265;1252;21996;-66
2024/04/15 01:29:04;;;;;;;18.50;8.90;;;;;;;9.82;51.98;100165.85;111300;1252;22414;-66
2024/04/15 01:31:33;;;;;;;18.30;10.10;;;;;;;9.81;52.36;100154.41;111311;1252;21960;-66
2024/04/15 01:34:02;;;;;;;14.40;8.80;;;;;;;9.83;52.31;100149.52;111377;1252;21955;-66
2024/04/15 01:36:31;;;;;;;20.00;10.90;;;;;;;9.84;52.45;100158.17;111609;1252;21967;-66
2024/04/15 01:39:00;;;;;;;20.20;10.40;;;;;;;9.85;52.68;100155.45;111318;1252;21960;-65
2024/04/15 01:41:29;;;;;;;18.60;11.40;;;;;;;9.84;52.88;100143.94;111567;1252;24305;-68
2024/04/15 01:43:57;;;;;;;23.60;11.10;;;;;;;9.80;52.83;100141.23;111240;1252;23693;-65
2024/04/15 01:46:26;;;;;;;18.60;11.70;;;;;;;9.75;52.75;100149.28;111293;1252;21960;-65
2024/04/15 01:48:55;;;;;;;17.80;11.60;;;;;;;9.72;53.05;100153.20;111280;1252;21953;-66
2024/04/15 01:51:24;;;;;;;20.40;11.90;;;;;;;9.74;53.31;100152.55;110976;1252;21957;-66
2024/04/15 01:53:53;;;;;;;17.00;12.20;;;;;;;9.77;53.21;100141.23;111563;1252;21955;-65
2024/04/15 01:56:22;;;;;;;18.60;12.90;;;;;;;9.78;53.53;100128.20;111154;1252;21938;-65
2024/04/15 01:58:51;;;;;;;16.60;11.80;;;;;;;9.77;53.60;100117.91;111382;1252;21953;-66
2024/04/15 02:01:20;;;;;;;18.50;12.70;;;;;;;9.76;53.75;100107.73;111301;1247;21945;-65
2024/04/15 02:03:49;;;;;;;18.50;11.70;;;;;;;9.77;53.86;100098.20;111324;1252;21955;-66
2024/04/15 02:06:19;;;;;;;22.10;11.10;;;;;;;9.76;53.58;100096.67;111231;1252;21961;-66
2024/04/15 02:08:47;;;;;;;17.40;11.00;;;;;;;9.73;53.67;100104.14;111312;1252;22427;-65
2024/04/15 02:11:16;;;;;;;23.20;12.30;;;;;;;9.70;53.88;100122.41;111283;1252;21963;-69
2024/04/15 02:13:45;;;;;;;21.30;11.80;;;;;;;9.69;54.13;100126.16;111502;1252;22419;-69
2024/04/15 02:16:14;;;;;;;21.00;11.40;;;;;;;9.72;54.33;100125.27;111515;1252;21954;-68
2024/04/15 02:18:43;;;;;;;19.20;12.10;;;;;;;9.77;54.45;100119.98;111263;1252;21955;-67
2024/04/15 02:21:12;;;;;;;16.40;11.20;;;;;;;9.81;54.55;100098.61;111569;1252;21950;-66
2024/04/15 02:23:40;;;;;;;24.50;11.00;;;;;;;9.84;54.70;100086.97;111319;1252;22611;-67
2024/04/15 02:26:09;;;;;;;17.40;12.70;;;;;;;9.78;55.15;100089.68;111583;1252;22085;-65
2024/04/15 02:28:38;;;;;;;16.20;11.90;;;;;;;9.65;55.49;100112.26;111417;1252;21961;-66
2024/04/15 02:31:07;;;;;;;22.30;13.10;;;;;;;9.61;55.36;100137.14;111333;1252;21962;-66
2024/04/15 02:33:36;;;;;;;22.00;13.70;;;;;;;9.60;55.70;100141.95;111302;1252;21949;-67
2024/04/15 02:36:05;;;;;;;21.00;12.60;;;;;;;9.63;55.70;100134.38;111301;1252;21958;-67
2024/04/15 02:38:34;;;;;;;24.60;13.00;;;;;;;9.64;55.48;100122.68;111303;1252;21953;-66
2024/04/15 02:41:03;;;;;;;18.50;12.50;;;;;;;9.64;55.65;100124.56;111387;1252;21952;-65
2024/04/15 02:43:32;;;;;;;19.40;13.70;;;;;;;9.69;55.89;100133.06;111368;1252;22425;-66
2024/04/15 02:46:01;;;;;;;19.70;13.70;;;;;;;9.73;55.79;100125.04;111293;1252;22035;-65
2024/04/15 02:48:30;;;;;;;21.30;13.70;;;;;;;9.76;55.84;100122.72;111404;1252;21965;-66
2024/04/15 02:50:59;;;;;;;19.60;12.90;;;;;;;9.77;55.88;100121.42;111316;1252;22109;-67
2024/04/15 02:53:31;;;;;;;20.90;14.80;;;;;;;9.77;55.74;100117.50;111267;1252;21998;-66
2024/04/15 02:56:01;;;;;;;20.10;13.30;;;;;;;9.77;56.12;100109.62;111249;1252;23010;-66
2024/04/15 02:58:29;;;;;;;21.90;14.40;;;;;;;9.77;56.12;100106.47;111645;1252;23690;-65
2024/04/15 03:00:58;;;;;;;21.00;13.90;;;;;;;9.78;55.96;100104.98;111249;1252;24300;-66
2024/04/15 03:03:27;;;;;;;24.20;13.00;;;;;;;9.81;55.95;100105.84;111252;1252;22061;-69
2024/04/15 03:05:56;;;;;;;16.50;12.50;;;;;;;9.83;55.99;100104.63;111622;1252;21948;-66
2024/04/15 03:08:24;;;;;;;20.60;12.60;;;;;;;9.86;55.90;100103.89;111550;1252;21949;-67
2024/04/15 03:10:53;;;;;;;19.10;11.90;;;;;;;9.88;55.98;100105.87;111530;1252;23039;-67
2024/04/15 03:13:21;;;;;;;25.30;11.90;;;;;;;9.89;55.57;100099.30;111256;1252;21952;-67
2024/04/15 03:15:55;;;;;;;15.50;11.20;;;;;;;9.89;55.26;100091.70;111269;1252;24428;-68
2024/04/15 03:18:31;;;;;;;17.30;11.60;;;;;;;9.87;55.41;100085.14;111270;1252;21951;-66
2024/04/15 03:21:08;;;;;;;18.90;11.50;;;;;;;9.87;55.24;100073.40;111577;1252;21953;-64
2024/04/15 03:23:37;;;;;;;16.50;10.40;;;;;;;9.84;54.95;100064.77;111449;1245;21987;-67
2024/04/15 03:26:06;;;;;;;21.90;10.50;;;;;;;9.82;54.56;100063.16;111327;1252;22026;-65
2024/04/15 03:28:35;;;;;;;16.00;10.30;;;;;;;9.81;54.18;100058.02;111361;1252;21959;-66
2024/04/15 03:31:04;;;;;;;22.20;11.40;;;;;;;9.80;53.90;100049.14;111354;1252;21953;-66
2024/04/15 03:33:34;;;;;;;18.80;11.20;;;;;;;9.79;54.18;100042.11;111362;1252;21951;-66
2024/04/15 03:36:04;;;;;;;23.00;11.80;;;;;;;9.79;53.99;100040.21;111367;1252;21957;-65
2024/04/15 03:38:33;;;;;;;21.20;11.20;;;;;;;9.79;54.13;100045.48;111369;1252;21999;-66
2024/04/15 03:41:02;;;;;;;22.60;12.00;;;;;;;9.79;53.82;100044.05;111340;1252;22170;-67
2024/04/15 03:43:31;;;;;;;19.80;9.90;;;;;;;9.80;53.45;100039.28;111267;1252;21955;-66
2024/04/15 03:45:59;;;;;;;18.20;10.30;;;;;;;9.81;53.08;100045.19;111275;1252;23058;-66
2024/04/15 03:48:28;;;;;;;16.00;10.50;;;;;;;9.80;52.87;100054.05;111275;1252;21953;-67
2024/04/15 03:50:57;;;;;;;16.90;9.90;;;;;;;9.81;52.32;100056.27;111398;1252;21956;-66
2024/04/15 03:53:27;;;;;;;24.50;12.60;;;;;;;9.82;51.86;100055.83;110993;1252;23665;-67
2024/04/15 03:55:56;;;;;;;23.70;11.80;;;;;;;9.83;51.22;100063.33;111057;1252;21960;-67
2024/04/15 03:58:25;;;;;;;21.30;11.00;;;;;;;9.83;50.94;100069.46;111609;1252;22416;-67
2024/04/15 04:01:00;;;;;;;17.80;10.30;;;;;;;9.85;50.41;100077.08;111540;1252;23566;-66
2024/04/15 04:03:29;;;;;;;18.30;8.40;;;;;;;9.84;50.34;100092.98;111412;1252;21942;-67
2024/04/15 04:05:58;;;;;;;14.10;8.40;;;;;;;9.84;50.46;100098.21;111541;1252;21963;-66
2024/04/15 04:08:40;;;;;;;14.40;8.10;;;;;;;9.84;50.58;100101.55;111600;1252;21966;-66
2024/04/15 04:11:09;;;;;;;16.30;7.40;;;;;;;9.85;50.56;100109.08;111556;1252;22020;-67
2024/04/15 04:13:38;;;;;;;12.40;6.40;;;;;;;9.85;50.77;100105.52;111388;1252;21947;-67
2024/04/15 04:16:12;;;;;;;10.50;5.60;;;;;;;9.86;50.78;100087.16;111411;1252;21989;-66
2024/04/15 04:18:42;;;;;;;13.50;7.50;;;;;;;9.86;50.78;100075.23;111336;1252;23548;-68
2024/04/15 04:21:12;;;;;;;17.20;7.80;;;;;;;9.84;50.98;100072.88;111341;1252;22057;-67
2024/04/15 04:23:41;;;;;;;13.60;6.90;;;;;;;9.82;51.09;100078.45;111284;1252;23010;-67
2024/04/15 04:26:09;;;;;;;16.30;7.90;;;;;;;9.82;51.10;100083.27;111310;1252;23611;-65
2024/04/15 04:28:38;;;;;;;14.80;7.70;;;;;;;9.81;51.49;100097.73;111245;1252;23732;-67
2024/04/15 04:31:07;;;;;;;13.70;7.00;;;;;;;9.81;51.58;100084.02;111071;1252;21995;-66
2024/04/15 04:33:36;;;;;;;12.30;6.10;;;;;;;9.81;51.71;100074.03;111235;1252;24086;-67
2024/04/15 04:36:05;;;;;;;14.80;5.90;;;;;;;9.80;51.51;100079.18;111279;1252;24163;-65
2024/04/15 04:38:35;;;;;;;14.10;6.70;;;;;;;9.78;51.57;100071.23;111286;1252;21965;-67
2024/04/15 04:41:03;;;;;;;11.00;5.80;;;;;;;9.77;51.73;100060.42;111305;1252;21981;-66
2024/04/15 04:43:32;;;;;;;17.50;8.10;;;;;;;9.76;51.68;100051.84;111409;1252;23595;-68
2024/04/15 04:46:09;;;;;;;11.50;5.20;;;;;;;9.75;51.93;100049.09;111586;1252;22779;-67
2024/04/15 04:48:39;;;;;;;14.10;5.10;;;;;;;9.72;52.24;100047.90;111532;1252;22056;-66
2024/04/15 04:51:10;;;;;;;12.90;5.70;;;;;;;9.72;52.67;100062.82;111523;1252;23556;-65
2024/04/15 04:53:39;;;;;;;17.40;6.60;;;;;;;9.76;53.11;100074.89;111324;1252;23060;-66
2024/04/15 04:56:12;;;;;;;13.40;5.50;;;;;;;9.78;53.20;100071.91;111602;1252;21983;-68
2024/04/15 04:58:43;;;;;;;11.80;5.60;;;;;;;9.81;53.26;100069.09;111258;1252;21963;-70
2024/04/15 05:01:14;;;;;;;19.50;6.70;;;;;;;9.82;53.02;100068.10;111279;1252;23617;-67
2024/04/15 05:03:45;;;;;;;11.70;6.50;;;;;;;9.82;52.77;100078.64;111454;1252;24297;-68
2024/04/15 05:06:15;;;;;;;14.90;6.20;;;;;;;9.83;52.92;100091.83;111707;1252;23757;-68
2024/04/15 05:08:45;;;;;;;14.80;6.20;;;;;;;9.84;53.31;100089.41;111671;1252;23029;-67
2024/04/15 05:11:16;;;;;;;14.00;6.70;;;;;;;9.85;53.67;100092.20;111016;1252;23663;-68
2024/04/15 05:13:45;;;;;;;13.30;5.90;;;;;;;9.85;53.90;100093.77;111589;1252;21959;-68
2024/04/15 05:16:14;;;;;;;17.00;6.10;;;;;;;9.84;53.93;100095.61;111570;1252;21966;-67
2024/04/15 05:18:45;;;;;;;16.10;6.70;;;;;;;9.84;54.17;100111.92;111500;1252;22001;-68
2024/04/15 05:21:19;;;;;;;13.60;6.00;;;;;;;9.85;54.62;100121.33;111520;1239;23038;-67
2024/04/15 05:23:48;;;;;;;12.20;5.90;;;;;;;9.86;55.22;100114.45;111635;1252;23560;-67
2024/04/15 05:26:17;;;;;;;10.00;6.10;;;;;;;9.88;55.10;100127.30;111222;1252;22473;-68
2024/04/15 05:28:45;;;;;;;10.10;4.40;;;;;;;9.88;55.23;100139.93;111314;1252;21952;-69
2024/04/15 05:31:14;;;;;;;6.20;3.50;;;;;;;9.87;54.97;100138.62;111542;1252;21952;-67
2024/04/15 05:33:46;;;;;;;8.00;3.60;;;;;;;9.84;55.19;100130.73;111242;1252;23357;-67
2024/04/15 05:36:15;;;;;;;9.10;3.40;;;;;;;9.83;55.10;100130.48;111598;1252;21984;-67
2024/04/15 05:38:44;;;;;;;10.70;3.50;;;;;;;9.80;55.30;100132.99;111263;1252;21963;-65
2024/04/15 05:41:13;;;;;;;7.60;2.90;;;;;;;9.78;55.53;100142.47;111322;1252;21939;-66
2024/04/15 05:43:42;;;;;;;9.20;3.10;;;;;;;9.76;55.39;100145.59;111311;1252;21952;-68
2024/04/15 05:46:11;;;;;;;10.60;4.00;;;;;;;9.71;55.41;100141.14;111313;1252;22418;-67
2024/04/15 05:48:40;;;;;;;7.70;3.30;;;;;;;9.70;55.71;100132.80;111361;1252;21956;-67
2024/04/15 05:51:12;;;;;;;8.40;3.30;;;;;;;9.70;55.75;100122.23;111278;1252;24295;-66
2024/04/15 05:53:41;;;;;;;6.40;3.10;;;;;;;9.70;55.88;100129.60;111653;1252;22091;-68
2024/04/15 05:56:10;;;;;;;7.20;3.20;;;;;;;9.71;56.40;100121.14;111503;1250;23424;-67
2024/04/15 05:58:39;;;;;;;7.70;3.50;;;;;;;9.72;56.52;100116.65;111554;1252;23081;-67
2024/04/15 06:01:07;;;;;;;10.50;4.00;;;;;;;9.74;57.02;100120.59;111471;1252;21934;-68
2024/04/15 06:03:37;;;;;;;12.20;3.70;;;;;;;9.75;56.75;100125.25;111273;1252;23362;-67
2024/04/15 06:06:05;;;;;;;9.50;4.60;;;;;;;9.75;56.77;100119.09;111533;1252;22165;-67
2024/04/15 06:08:34;;;;;;;9.40;5.20;;;;;;;9.73;56.60;100109.02;111568;1252;21960;-66
2024/04/15 06:11:03;;;;;;;11.20;3.90;;;;;;;9.72;56.78;100103.48;111254;1252;22913;-71
2024/04/15 06:13:32;;;;;;;8.30;3.70;;;;;;;9.71;57.11;100096.83;111353;1252;21963;-69
2024/04/15 06:16:01;;;;;;;7.30;2.80;;;;;;;9.68;57.16;100090.76;111547;1252;23560;-67
2024/04/15 06:18:30;;;;;;;6.00;2.40;;;;;;;9.66;57.42;100086.15;111537;1252;21995;-67
2024/04/15 06:20:59;;;;;;;6.80;2.60;;;;;;;9.66;57.24;100086.01;111497;1252;21951;-66
2024/04/15 06:23:27;;;;;;;6.30;2.20;;;;;;;9.63;57.05;100083.00;111224;1252;22100;-66
2024/04/15 06:25:56;;;;;;;6.80;2.30;;;;;;;9.58;57.13;100073.17;111262;1252;21961;-67
2024/04/15 06:28:25;;;;;;;8.60;2.30;;;;;;;9.56;57.27;100070.52;111296;1253;21953;-67
2024/04/15 06:30:55;;;;;;;4.50;2.20;;;;;;;9.55;57.52;100066.02;111310;1252;21952;-67
2024/04/15 06:33:24;;;;;;;9.00;2.50;;;;;;;9.55;57.64;100058.64;111009;1239;21974;-70
2024/04/15 06:35:53;;;;;;;6.70;2.40;;;;;;;9.58;57.56;100051.58;111234;1253;21959;-67
2024/04/15 06:38:22;;;;;;;8.40;2.80;;;;;;;9.60;57.77;100043.17;111345;1253;21951;-67
2024/04/15 06:40:51;;;;;;;5.70;2.50;;;;;;;9.60;57.73;100051.26;111188;1253;21960;-68
2024/04/15 06:43:20;;;;;;;12.20;3.20;;;;;;;9.61;57.71;100055.55;111548;1252;22000;-67
2024/04/15 06:45:49;;;;;;;4.40;2.50;;;;;;;9.57;57.89;100061.63;111488;1252;21957;-68
2024/04/15 06:48:17;;;;;;;8.00;2.80;;;;;;;9.55;58.23;100062.86;111489;1253;22395;-65
2024/04/15 06:50:46;;;;;;;4.30;2.70;;;;;;;9.53;58.22;100057.90;111257;1253;21958;-66
2024/04/15 06:53:15;;;;;;;6.50;2.40;;;;;;;9.50;58.49;100064.57;111299;1252;22043;-67
2024/04/15 06:55:44;;;;;;;5.60;2.10;;;;;;;9.50;58.48;100060.90;111229;1252;21955;-66
2024/04/15 06:58:13;;;;;;;5.80;2.40;;;;;;;9.49;58.59;100046.53;111664;1252;22164;-67
2024/04/15 07:00:41;;;;;;;5.50;2.20;;;;;;;9.49;58.95;100037.75;111512;1253;22988;-69
2024/04/15 07:03:10;;;;;;;6.00;2.40;;;;;;;9.48;58.90;100032.58;111514;1253;24056;-65
2024/04/15 07:05:39;;;;;;;4.50;1.70;;;;;;;9.45;59.28;100028.36;111348;1252;21982;-67
2024/04/15 07:08:08;;;;;;;7.70;2.50;;;;;;;9.43;59.48;100023.80;111283;1252;21960;-66
2024/04/15 07:10:38;;;;;;;8.70;2.80;;;;;;;9.42;59.76;100016.25;111583;1252;21968;-67
2024/04/15 07:13:08;;;;;;;5.70;2.10;;;;;;;9.39;59.82;100009.66;111217;1252;21972;-67
2024/04/15 07:15:37;;;;;;;5.10;2.30;;;;;;;9.32;59.74;100010.30;111210;1252;23065;-65
2024/04/15 07:18:06;;;;;;;4.80;2.60;;;;;;;9.28;60.35;100016.95;111666;1252;21961;-67
2024/04/15 07:20:39;;;;;;;8.40;2.90;;;;;;;9.23;60.73;100014.09;111572;1252;23088;-66
2024/04/15 07:23:08;;;;;;;8.10;3.10;;;;;;;9.21;60.69;100013.39;110893;1252;21963;-67
2024/04/15 07:25:37;;;;;;;9.30;2.80;;;;;;;9.20;61.21;100016.05;111321;1252;23690;-67
2024/04/15 07:28:05;;;;;;;8.80;2.60;;;;;;;9.23;61.52;100011.98;111289;1252;22047;-65
2024/04/15 07:30:34;;;;;;;7.60;2.50;;;;;;;9.26;61.50;100017.39;111237;1253;21959;-66
2024/04/15 07:33:04;;;;;;;7.20;3.40;;;;;;;9.31;61.41;100025.71;111312;1252;21942;-68
2024/04/15 07:35:36;;;;;;;9.10;3.10;;;;;;;9.35;61.58;100025.55;111580;1252;21955;-70
2024/04/15 07:38:06;;;;;;;10.60;3.80;;;;;;;9.37;61.56;100018.94;111640;1253;21956;-67
2024/04/15 07:40:36;;;;;;;7.90;3.50;;;;;;;9.36;61.69;100016.84;111613;1253;21997;-67
2024/04/15 07:43:05;;;;;;;8.20;4.10;;;;;;;9.40;61.87;100017.85;111339;1241;21959;-66
2024/04/15 07:45:35;;;;;;;9.80;4.00;;;;;;;9.44;61.78;100011.73;111175;1252;24296;-66
2024/04/15 07:48:05;;;;;;;7.70;2.70;;;;;;;9.47;61.88;100007.48;111422;1251;24383;-68
2024/04/15 07:50:33;;;;;;;7.40;2.80;;;;;;;9.48;62.02;100008.48;111363;1251;21964;-66
2024/04/15 07:53:03;;;;;;;11.40;2.90;;;;;;;9.51;61.97;100007.05;111291;1251;21965;-69
2024/04/15 07:55:32;;;;;;;6.40;3.00;;;;;;;9.54;62.15;100004.23;111053;1251;23673;-66
2024/04/15 07:58:01;;;;;;;5.80;2.80;;;;;;;9.58;62.23;100006.20;111486;1251;22422;-67
2024/04/15 08:00:30;;;;;;;8.00;3.20;;;;;;;9.64;62.13;100002.98;111641;1251;21946;-67
2024/04/15 08:02:58;;;;;;;9.40;4.00;;;;;;;9.68;62.06;100004.41;111307;1251;21960;-69
2024/04/15 08:05:27;;;;;;;7.60;3.20;;;;;;;9.75;61.62;100006.17;111591;1251;22999;-70
2024/04/15 08:07:56;;;;;;;8.20;3.30;;;;;;;9.79;61.69;99997.47;111519;1251;21939;-66
2024/04/15 08:10:25;;;;;;;8.60;3.70;;;;;;;9.87;61.95;99990.77;111582;1251;21952;-66
2024/04/15 08:12:54;;;;;;;8.50;3.80;;;;;;;9.94;61.79;99996.05;111283;1251;23868;-66
2024/04/15 08:15:23;;;;;;;6.60;3.40;;;;;;;10.02;62.04;99996.70;111485;1251;22743;-66
2024/04/15 08:17:53;;;;;;;9.50;3.30;;;;;;;10.07;61.98;99988.39;111304;1251;21957;-67
2024/04/15 08:20:22;;;;;;;7.70;3.50;;;;;;;10.12;61.99;99982.09;111403;1251;21960;-67
2024/04/15 08:22:51;;;;;;;6.30;3.50;;;;;;;10.16;61.46;99977.87;111063;1251;22053;-67
2024/04/15 08:25:20;;;;;;;8.20;3.80;;;;;;;10.23;61.31;99975.79;111354;1251;22016;-69
2024/04/15 08:27:49;;;;;;;12.70;4.80;;;;;;;10.30;61.00;99974.71;111340;1251;23673;-71
2024/04/15 08:30:19;;;;;;;7.40;4.40;;;;;;;10.34;60.86;99973.04;111679;1251;22121;-67
2024/04/15 08:32:50;;;;;;;6.80;3.80;;;;;;;10.37;60.42;99973.51;111625;1251;21962;-65
2024/04/15 08:35:19;;;;;;;8.70;3.80;;;;;;;10.43;60.23;99970.92;111662;1251;22923;-66
2024/04/15 08:37:48;;;;;;;9.40;4.60;;;;;;;10.54;60.07;99972.64;111606;1251;23663;-67
2024/04/15 08:40:17;;;;;;;10.90;4.90;;;;;;;10.65;60.00;99971.27;111662;1251;21950;-68
2024/04/15 08:42:52;;;;;;;9.70;4.30;;;;;;;10.76;59.69;99971.45;111579;1251;22107;-67
2024/04/15 08:45:23;;;;;;;15.60;4.70;;;;;;;10.86;59.35;99971.02;111376;1251;23119;-69
2024/04/15 08:47:56;;;;;;;9.60;4.00;;;;;;;10.89;59.11;99966.02;111365;1252;21960;-68
2024/04/15 08:50:26;;;;;;;8.00;4.90;;;;;;;10.98;59.47;99960.88;111294;1253;23582;-66
2024/04/15 08:52:56;;;;;;;10.10;5.00;;;;;;;11.33;59.60;99956.21;111008;1253;22047;-67
2024/04/15 08:55:26;;;;;;;11.00;5.80;;;;;;;11.59;58.79;99950.56;110998;1253;21952;-67
2024/04/15 08:57:56;;;;;;;7.90;4.50;;;;;;;11.84;57.95;99946.99;111287;1253;22141;-68
2024/04/15 09:00:25;;;;;;;7.60;4.00;;;;;;;12.05;56.81;99944.39;111387;1241;23746;-67
2024/04/15 09:02:54;;;;;;;7.40;4.20;;;;;;;12.26;55.61;99947.98;111011;1253;21951;-65
2024/04/15 09:05:23;;;;;;;9.60;5.30;;;;;;;12.47;55.31;99948.67;111199;1253;22010;-67
2024/04/15 09:07:52;;;;;;;9.60;4.90;;;;;;;12.59;54.77;99949.07;111033;1253;22061;-66
2024/04/15 09:10:21;;;;;;;9.70;5.20;;;;;;;12.56;54.51;99945.84;111305;1253;21959;-68
2024/04/15 09:12:50;;;;;;;10.90;6.60;;;;;;;12.47;54.56;99946.77;111109;1253;23669;-68
2024/04/15 09:15:20;;;;;;;5.90;3.30;;;;;;;12.38;54.71;99934.05;111254;1253;21962;-67
2024/04/15 09:17:52;;;;;;;9.90;4.00;;;;;;;12.24;54.10;99926.05;111034;1253;22021;-67
2024/04/15 09:20:22;;;;;;;6.80;3.80;;;;;;;12.13;53.95;99927.89;111253;1253;24435;-68
2024/04/15 09:23:10;;;;;;;11.10;4.30;;;;;;;11.99;54.05;99922.64;111284;1253;23744;-71
2024/04/15 09:25:40;;;;;;;8.70;5.90;;;;;;;11.96;55.01;99917.65;111256;1253;21957;-67
2024/04/15 09:28:08;;;;;;;7.70;4.00;;;;;;;12.00;55.00;99913.45;111315;1253;24101;-69
2024/04/15 09:30:37;;;;;;;12.50;6.60;;;;;;;12.07;54.79;99911.09;111285;1253;21968;-68
2024/04/15 09:33:11;;;;;;;10.00;5.00;;;;;;;12.23;55.14;99909.43;111291;1253;23061;-68
2024/04/15 09:35:40;;;;;;;10.50;6.20;;;;;;;12.35;54.47;99911.17;111399;1253;23666;-69
2024/04/15 09:38:12;;;;;;;7.70;3.40;;;;;;;12.62;54.65;99913.64;111333;1251;21952;-68
2024/04/15 09:40:42;;;;;;;7.30;3.50;;;;;;;12.88;53.24;99915.67;111307;1253;23678;-68
2024/04/15 09:43:12;;;;;;;5.30;2.90;;;;;;;12.95;52.71;99915.73;111494;1252;23458;-68
2024/04/15 09:45:40;;;;;;;7.40;3.30;;;;;;;13.08;52.65;99913.21;111572;1253;22436;-69
2024/04/15 09:48:16;;;;;;;6.90;3.50;;;;;;;13.34;52.10;99916.08;111572;1253;21960;-67
2024/04/15 09:50:47;;;;;;;6.60;3.30;;;;;;;13.72;51.95;99915.29;111294;1252;22934;-71
2024/04/15 09:53:23;;;;;;;13.70;4.80;;;;;;;14.13;50.38;99919.08;111665;1252;21956;-69
2024/04/15 09:56:01;;;;;;;14.10;5.30;;;;;;;14.29;48.66;99920.35;111580;1245;23054;-69
2024/04/15 09:58:31;;;;;;;7.40;4.30;;;;;;;14.37;48.65;99921.79;111262;1252;22923;-70
2024/04/15 10:01:05;;;;;;;6.50;4.20;;;;;;;14.59;49.24;99923.11;111308;1253;21951;-70
2024/04/15 10:03:37;;;;;;;6.00;3.70;;;;;;;14.86;48.65;99925.83;111519;1253;22416;-68
2024/04/15 10:06:09;;;;;;;8.10;3.50;;;;;;;15.12;48.01;99925.23;111275;1253;22996;-68
2024/04/15 10:08:38;;;;;;;8.00;3.20;;;;;;;15.28;47.73;99912.07;111247;1253;21954;-68
2024/04/15 10:11:10;;;;;;;7.10;2.90;;;;;;;15.42;47.49;99908.77;111517;1253;22059;-69
2024/04/15 10:13:39;;;;;;;6.20;2.70;;;;;;;15.45;46.67;99900.55;111273;1252;21954;-67
2024/04/15 10:16:18;;;;;;;6.10;3.10;;;;;;;15.46;46.98;99896.31;111527;1253;23600;-68
2024/04/15 10:19:11;;;;;;;11.20;3.90;;;;;;;15.55;46.58;99890.89;111358;1252;23851;-71
2024/04/15 10:21:42;;;;;;;8.30;4.10;;;;;;;15.59;45.75;99888.49;111528;1252;21964;-71
2024/04/15 10:24:12;;;;;;;8.10;3.40;;;;;;;15.63;45.61;99886.41;111510;1253;22047;-68
2024/04/15 10:26:44;;;;;;;8.00;3.50;;;;;;;15.66;45.15;99880.89;111558;1252;21970;-68
2024/04/15 10:29:38;;;;;;;12.50;4.10;;;;;;;15.68;45.15;99875.62;111559;1252;21962;-70
2024/04/15 10:32:08;;;;;;;10.40;3.70;;;;;;;15.66;45.11;99871.84;111287;1252;21958;-69
2024/04/15 10:34:44;;;;;;;6.00;2.70;;;;;;;15.58;45.37;99867.82;111551;1244;21963;-67
2024/04/15 10:37:15;;;;;;;7.40;3.30;;;;;;;15.65;45.67;99873.06;111546;1241;21959;-70
2024/04/15 10:39:45;;;;;;;8.90;3.20;;;;;;;15.68;44.56;99872.20;111510;1252;21955;-69
2024/04/15 10:42:14;;;;;;;5.00;2.80;;;;;;;15.65;44.62;99868.04;111640;1252;23090;-69
2024/04/15 10:44:43;;;;;;;9.50;3.20;;;;;;;15.57;44.80;99869.90;111550;1252;22193;-67
2024/04/15 10:47:12;;;;;;;11.50;4.10;;;;;;;15.50;44.84;99862.44;111539;1252;23570;-70
2024/04/15 10:49:40;;;;;;;8.80;5.80;;;;;;;15.37;44.98;99852.52;111514;1252;21961;-70
2024/04/15 10:52:09;;;;;;;9.60;4.60;;;;;;;15.34;45.05;99849.46;111536;1252;23026;-67
2024/04/15 10:54:38;;;;;;;9.60;5.70;;;;;;;15.38;44.99;99851.32;111511;1252;21962;-68
2024/04/15 10:57:08;;;;;;;8.60;4.40;;;;;;;15.31;44.54;99847.58;111509;1253;23579;-68
2024/04/15 10:59:40;;;;;;;10.50;5.20;;;;;;;15.21;44.78;99845.55;111559;1252;21954;-67
2024/04/15 11:02:10;;;;;;;10.10;4.90;;;;;;;15.19;44.76;99842.25;111596;1252;23103;-67
2024/04/15 11:04:39;;;;;;;11.00;4.90;;;;;;;15.21;45.55;99833.17;111594;1252;21952;-68
2024/04/15 11:07:08;;;;;;;12.20;5.50;;;;;;;15.34;45.50;99826.89;111533;1252;23608;-67
2024/04/15 11:09:37;;;;;;;24.30;5.10;;;;;;;15.37;44.60;99827.16;111529;1252;21952;-70
2024/04/15 11:12:06;;;;;;;10.10;3.70;;;;;;;15.31;44.50;99824.92;111514;1252;23573;-69
2024/04/15 11:14:36;;;;;;;7.50;3.80;;;;;;;15.25;43.98;99820.70;111309;1252;22162;-68
2024/04/15 11:17:04;;;;;;;8.90;4.80;;;;;;;15.17;44.29;99822.79;111516;1252;21954;-69
2024/04/15 11:19:38;;;;;;;11.40;4.70;;;;;;;15.20;44.34;99825.98;111580;1253;23026;-70
2024/04/15 11:22:09;;;;;;;9.30;4.60;;;;;;;15.33;44.74;99816.70;111514;1253;21965;-68
2024/04/15 11:24:38;;;;;;;10.00;3.60;;;;;;;15.50;44.07;99813.48;111693;1253;23592;-70
2024/04/15 11:27:10;;;;;;;11.10;3.90;;;;;;;15.34;42.99;99804.52;111566;1252;21955;-68
2024/04/15 11:29:39;;;;;;;11.90;3.70;;;;;;;15.20;43.54;99809.48;111526;1253;22445;-69
2024/04/15 11:32:26;;;;;;;9.70;3.30;;;;;;;14.99;42.86;99803.43;111335;1253;21970;-69